createdAt,value
2022-08-03T00:00:41.673Z,7.63
2022-08-03T00:03:24.818Z,8.30
2022-08-03T00:06:07.998Z,7.83
2022-08-03T00:08:51.182Z,8.70
2022-08-03T00:11:34.465Z,8.70
2022-08-03T00:14:17.616Z,8.20
2022-08-03T00:17:02.310Z,7.87
2022-08-03T00:19:45.411Z,8.17
2022-08-03T00:22:28.613Z,8.00
2022-08-03T00:25:11.735Z,8.30
2022-08-03T00:27:54.810Z,7.60
2022-08-03T00:30:39.112Z,7.63
2022-08-03T00:33:26.384Z,8.37
2022-08-03T00:36:12.418Z,7.63
2022-08-03T00:38:57.483Z,8.33
2022-08-03T00:41:42.930Z,7.70
2022-08-03T00:44:27.187Z,8.23
2022-08-03T00:47:11.101Z,7.80
2022-08-03T00:49:55.825Z,9.60
2022-08-03T00:52:39.178Z,9.07
2022-08-03T00:55:22.585Z,8.87
2022-08-03T00:58:06.816Z,8.87
2022-08-03T01:00:50.023Z,9.60
2022-08-03T01:03:33.168Z,9.57
2022-08-03T01:06:21.246Z,9.80
2022-08-03T01:09:10.789Z,10.00
2022-08-03T01:12:02.496Z,11.20
2022-08-03T01:14:51.547Z,9.43
2022-08-03T01:17:41.602Z,9.77
2022-08-03T01:20:28.538Z,9.77
2022-08-03T01:23:56.551Z,9.30
2022-08-03T01:26:52.311Z,9.53
2022-08-03T01:30:01.514Z,8.90
2022-08-03T01:33:03.000Z,9.90
2022-08-03T01:35:50.204Z,9.07
2022-08-03T01:38:35.340Z,8.83
2022-08-03T01:41:22.368Z,8.90
2022-08-03T01:44:29.665Z,9.30
2022-08-03T01:47:17.009Z,9.33
2022-08-03T01:50:02.649Z,8.87
2022-08-03T01:52:47.365Z,8.23
2022-08-03T01:55:33.346Z,8.37
2022-08-03T01:58:18.590Z,9.27
2022-08-03T02:01:03.762Z,9.33
2022-08-03T02:04:00.119Z,9.53
2022-08-03T02:06:59.942Z,9.30
2022-08-03T02:09:51.153Z,8.23
2022-08-03T02:12:35.591Z,8.30
2022-08-03T02:15:20.720Z,8.23
2022-08-03T02:18:06.386Z,8.03
2022-08-03T02:20:51.845Z,8.10
2022-08-03T02:23:35.130Z,7.90
2022-08-03T02:26:23.500Z,8.03
2022-08-03T02:29:12.708Z,7.80
2022-08-03T02:32:01.653Z,8.07
2022-08-03T02:34:50.412Z,7.60
2022-08-03T02:37:39.166Z,8.43
2022-08-03T02:40:29.678Z,8.80
2022-08-03T02:43:22.860Z,8.40
2022-08-03T02:46:06.736Z,7.40
2022-08-03T02:48:52.776Z,8.13
2022-08-03T02:51:38.855Z,8.30
2022-08-03T02:54:27.875Z,8.17
2022-08-03T02:57:15.004Z,8.03
2022-08-03T03:00:00.185Z,7.83
2022-08-03T03:02:44.472Z,7.80
2022-08-03T03:05:55.201Z,7.70
2022-08-03T03:08:35.705Z,8.43
2022-08-03T03:11:24.762Z,7.90
2022-08-03T03:14:08.822Z,8.17
2022-08-03T03:16:57.950Z,8.27
2022-08-03T03:19:42.916Z,7.63
2022-08-03T03:22:27.331Z,7.90
2022-08-03T03:25:11.424Z,8.60
2022-08-03T03:27:56.660Z,14.20
2022-08-03T03:30:41.010Z,13.73
2022-08-03T03:33:24.513Z,8.80
2022-08-03T03:36:08.565Z,10.03
2022-08-03T03:38:51.694Z,10.60
2022-08-03T03:41:37.018Z,10.60
2022-08-03T03:44:21.692Z,10.70
2022-08-03T03:47:05.131Z,21.10
2022-08-03T03:49:48.472Z,13.00
2022-08-03T03:52:35.828Z,10.17
2022-08-03T03:55:19.750Z,10.43
2022-08-03T03:58:04.186Z,9.80
2022-08-03T04:00:49.867Z,10.37
2022-08-03T04:03:33.010Z,8.80
2022-08-03T04:06:34.188Z,8.30
2022-08-03T04:09:35.283Z,8.87
2022-08-03T04:12:20.867Z,8.80
2022-08-03T04:15:05.791Z,8.50
2022-08-03T04:17:52.006Z,8.73
2022-08-03T04:20:39.303Z,9.40
2022-08-03T04:23:25.823Z,8.57
2022-08-03T04:26:12.061Z,8.80
2022-08-03T04:28:57.251Z,8.73
2022-08-03T04:31:41.223Z,8.87
2022-08-03T04:34:25.726Z,8.60
2022-08-03T04:37:13.253Z,9.10
2022-08-03T04:39:59.743Z,8.97
2022-08-03T04:42:44.272Z,7.43
2022-08-03T04:45:29.031Z,8.63
2022-08-03T04:48:12.223Z,8.00
2022-08-03T04:50:57.014Z,7.77
2022-08-03T04:53:40.233Z,8.27
2022-08-03T04:56:23.360Z,8.90
2022-08-03T04:59:06.441Z,9.13
2022-08-03T05:01:49.632Z,8.60
2022-08-03T05:04:32.856Z,8.67
2022-08-03T05:07:22.708Z,10.17
2022-08-03T05:10:16.240Z,9.23
2022-08-03T05:12:59.884Z,11.10
2022-08-03T05:15:43.424Z,10.77
2022-08-03T05:18:26.557Z,11.53
2022-08-03T05:21:12.504Z,11.23
2022-08-03T05:23:57.092Z,12.27
2022-08-03T05:26:40.170Z,12.40
2022-08-03T05:29:23.321Z,11.00
2022-08-03T05:32:08.426Z,10.37
2022-08-03T05:34:51.652Z,9.73
2022-08-03T05:37:37.529Z,8.67
2022-08-03T05:40:22.200Z,9.87
2022-08-03T05:43:05.263Z,9.50
2022-08-03T05:45:48.390Z,9.40
2022-08-03T05:48:52.114Z,9.20
2022-08-03T05:51:35.585Z,9.07
2022-08-03T05:54:18.673Z,9.00
2022-08-03T05:57:03.199Z,10.20
2022-08-03T05:59:55.571Z,10.07
2022-08-03T06:02:44.245Z,8.60
2022-08-03T06:05:28.413Z,9.40
2022-08-03T06:08:11.717Z,9.57
2022-08-03T06:10:58.657Z,8.80
2022-08-03T06:13:43.518Z,8.87
2022-08-03T06:16:26.636Z,8.63
2022-08-03T06:19:09.992Z,8.70
2022-08-03T06:21:53.109Z,9.33
2022-08-03T06:24:36.640Z,8.90
2022-08-03T06:27:20.664Z,8.97
2022-08-03T06:30:21.645Z,9.27
2022-08-03T06:33:04.929Z,9.70
2022-08-03T06:35:51.478Z,9.20
2022-08-03T06:38:34.539Z,9.73
2022-08-03T06:41:17.790Z,9.13
2022-08-03T06:44:03.079Z,9.27
2022-08-03T06:46:48.933Z,9.13
2022-08-03T06:49:32.100Z,9.07
2022-08-03T06:52:15.210Z,9.20
2022-08-03T06:55:18.378Z,9.43
2022-08-03T06:58:03.348Z,9.67
2022-08-03T07:00:46.892Z,9.13
2022-08-03T07:03:31.457Z,9.07
2022-08-03T07:06:16.209Z,10.23
2022-08-03T07:08:59.860Z,9.47
2022-08-03T07:11:42.930Z,9.40
2022-08-03T07:14:26.239Z,9.60
2022-08-03T07:17:11.495Z,9.10
2022-08-03T07:19:56.995Z,8.70
2022-08-03T07:22:40.269Z,9.73
2022-08-03T07:25:23.874Z,8.60
2022-08-03T07:28:06.962Z,9.13
2022-08-03T07:30:50.234Z,9.33
2022-08-03T07:33:33.362Z,9.90
2022-08-03T07:36:21.102Z,9.63
2022-08-03T07:39:17.533Z,9.57
2022-08-03T07:42:01.115Z,9.40
2022-08-03T07:44:46.548Z,9.30
2022-08-03T07:47:35.416Z,9.70
2022-08-03T07:50:19.114Z,8.50
2022-08-03T07:53:03.567Z,9.70
2022-08-03T07:55:46.671Z,7.70
2022-08-03T07:58:29.741Z,7.97
2022-08-03T08:01:15.153Z,8.50
2022-08-03T08:03:58.433Z,8.50
2022-08-03T08:06:41.489Z,7.90
2022-08-03T08:09:26.045Z,7.83
2022-08-03T08:12:15.685Z,7.30
2022-08-03T08:14:59.295Z,8.27
2022-08-03T08:17:46.844Z,7.43
2022-08-03T08:20:32.130Z,7.70
2022-08-03T08:23:37.744Z,6.80
2022-08-03T08:26:19.857Z,7.07
2022-08-03T08:29:02.986Z,6.30
2022-08-03T08:31:46.116Z,5.80
2022-08-03T08:34:29.399Z,5.93
2022-08-03T08:37:15.508Z,6.10
2022-08-03T08:39:58.711Z,6.03
2022-08-03T08:42:57.837Z,6.55
2022-08-03T08:45:43.406Z,6.38
2022-08-03T08:48:28.109Z,8.35
2022-08-03T08:51:13.562Z,6.63
2022-08-03T08:53:59.810Z,7.10
2022-08-03T08:56:43.388Z,6.47
2022-08-03T08:59:48.931Z,6.60
2022-08-03T09:02:32.194Z,6.47
2022-08-03T09:05:17.310Z,6.20
2022-08-03T09:08:00.623Z,6.78
2022-08-03T09:10:43.797Z,6.90
2022-08-03T09:13:27.180Z,6.28
2022-08-03T09:16:13.775Z,6.40
2022-08-03T09:18:57.103Z,6.68
2022-08-03T09:21:40.223Z,6.38
2022-08-03T09:24:40.837Z,6.60
2022-08-03T09:27:26.139Z,5.95
2022-08-03T09:30:33.404Z,5.82
2022-08-03T09:33:19.525Z,6.68
2022-08-03T09:36:02.628Z,6.25
2022-08-03T09:39:06.409Z,5.78
2022-08-03T09:42:05.275Z,5.55
2022-08-03T09:44:49.893Z,5.68
2022-08-03T09:47:36.444Z,6.25
2022-08-03T09:50:20.997Z,5.88
2022-08-03T09:53:05.259Z,5.72
2022-08-03T09:56:34.595Z,6.45
2022-08-03T09:59:02.217Z,6.15
2022-08-03T10:01:45.390Z,5.78
2022-08-03T10:04:31.696Z,5.30
2022-08-03T10:07:16.576Z,5.35
2022-08-03T10:10:28.817Z,6.18
2022-08-03T10:13:04.998Z,6.05
2022-08-03T10:16:21.197Z,6.95
2022-08-03T10:18:51.704Z,7.20
2022-08-03T10:21:36.842Z,6.85
2022-08-03T10:24:26.672Z,5.78
2022-08-03T10:27:12.173Z,5.93
2022-08-03T10:29:58.697Z,6.32
2022-08-03T10:32:44.497Z,5.88
2022-08-03T10:35:28.283Z,11.15
2022-08-03T10:38:17.893Z,7.47
2022-08-03T10:41:03.497Z,5.32
2022-08-03T10:43:51.826Z,5.72
2022-08-03T10:46:38.370Z,5.70
2022-08-03T10:49:34.002Z,5.55
2022-08-03T10:52:32.440Z,6.00
2022-08-03T10:55:49.339Z,16.63
2022-08-03T10:58:57.430Z,5.82
2022-08-03T11:01:59.867Z,5.75
2022-08-03T11:04:45.338Z,6.78
2022-08-03T11:07:28.413Z,5.40
2022-08-03T11:10:31.685Z,7.53
2022-08-03T11:13:16.995Z,8.83
2022-08-03T11:16:06.527Z,6.93
2022-08-03T11:19:02.745Z,6.53
2022-08-03T11:21:59.998Z,6.67
2022-08-03T11:24:58.568Z,6.70
2022-08-03T11:27:41.664Z,7.13
2022-08-03T11:30:27.587Z,6.90
2022-08-03T11:33:30.781Z,6.80
2022-08-03T11:36:31.909Z,7.17
2022-08-03T11:39:16.711Z,6.50
2022-08-03T11:42:00.306Z,7.40
2022-08-03T11:44:47.515Z,8.23
2022-08-03T11:47:31.428Z,8.30
2022-08-03T11:50:17.265Z,9.90
2022-08-03T11:53:00.416Z,11.30
2022-08-03T11:55:44.478Z,7.23
2022-08-03T11:58:58.059Z,6.87
2022-08-03T12:01:32.378Z,8.93
2022-08-03T12:04:17.375Z,7.93
2022-08-03T12:07:04.485Z,7.70
2022-08-03T12:10:07.717Z,6.97
2022-08-03T12:12:57.051Z,7.60
2022-08-03T12:15:41.385Z,8.43
2022-08-03T12:18:25.370Z,15.47
2022-08-03T12:21:10.573Z,7.73
2022-08-03T12:24:00.763Z,10.47
2022-08-03T12:26:54.511Z,14.63
2022-08-03T12:29:58.626Z,7.07
2022-08-03T12:32:44.998Z,8.70
2022-08-03T12:35:28.128Z,7.30
2022-08-03T12:38:14.931Z,7.03
2022-08-03T12:41:04.828Z,7.10
2022-08-03T12:43:50.066Z,7.37
2022-08-03T12:46:35.034Z,9.27
2022-08-03T12:49:19.243Z,7.33
2022-08-03T12:52:07.244Z,6.80
2022-08-03T12:54:57.156Z,6.90
2022-08-03T12:57:44.694Z,6.97
2022-08-03T13:00:30.097Z,7.93
2022-08-03T13:03:39.640Z,7.43
2022-08-03T13:06:19.784Z,8.03
2022-08-03T13:09:04.979Z,7.10
2022-08-03T13:11:57.869Z,8.63
2022-08-03T13:14:50.145Z,7.50
2022-08-03T13:17:33.288Z,7.47
2022-08-03T13:20:19.028Z,7.17
2022-08-03T13:23:02.238Z,7.50
2022-08-03T13:25:55.515Z,7.73
2022-08-03T13:28:39.351Z,8.50
2022-08-03T13:31:23.908Z,7.60
2022-08-03T13:34:09.992Z,8.00
2022-08-03T13:37:08.863Z,8.17
2022-08-03T13:39:58.957Z,7.60
2022-08-03T13:42:43.570Z,7.57
2022-08-03T13:45:27.565Z,11.03
2022-08-03T13:48:12.304Z,7.93
2022-08-03T13:50:55.447Z,7.90
2022-08-03T13:53:38.549Z,6.80
2022-08-03T13:56:21.711Z,7.30
2022-08-03T13:59:04.895Z,7.60
2022-08-03T14:01:55.536Z,7.07
2022-08-03T14:04:40.317Z,8.10
2022-08-03T14:07:23.521Z,8.40
2022-08-03T14:10:07.608Z,7.80
2022-08-03T14:12:50.819Z,8.50
2022-08-03T14:15:37.481Z,7.30
2022-08-03T14:18:29.168Z,7.23
2022-08-03T14:21:18.538Z,7.43
2022-08-03T14:24:04.807Z,7.67
2022-08-03T14:26:47.933Z,7.30
2022-08-03T14:29:31.109Z,7.80
2022-08-03T14:32:14.332Z,7.87
2022-08-03T14:34:57.527Z,7.60
2022-08-03T14:37:44.567Z,7.40
2022-08-03T14:40:27.889Z,7.73
2022-08-03T14:43:11.221Z,7.40
2022-08-03T14:45:55.303Z,8.10
2022-08-03T14:50:12.597Z,8.20
2022-08-03T14:51:51.371Z,8.17
2022-08-03T14:54:38.415Z,8.33
2022-08-03T14:57:21.986Z,7.73
2022-08-03T15:00:06.686Z,8.60
2022-08-03T15:02:49.847Z,9.20
2022-08-03T15:05:33.066Z,7.93
2022-08-03T15:08:18.800Z,8.67
2022-08-03T15:11:03.718Z,8.23
2022-08-03T15:13:47.945Z,9.13
2022-08-03T15:16:31.116Z,11.07
2022-08-03T15:20:02.842Z,11.87
2022-08-03T15:22:20.684Z,10.40
2022-08-03T15:26:31.998Z,9.80
2022-08-03T15:28:13.481Z,10.73
2022-08-03T15:30:56.574Z,12.47
2022-08-03T15:33:40.063Z,12.07
2022-08-03T15:36:23.203Z,11.70
2022-08-03T15:39:06.912Z,10.50
2022-08-03T15:41:49.987Z,10.13
2022-08-03T15:44:34.475Z,10.53
2022-08-03T15:47:17.802Z,10.43
2022-08-03T15:50:00.882Z,11.80
2022-08-03T15:52:44.020Z,10.90
2022-08-03T15:55:27.299Z,11.93
2022-08-03T15:59:04.155Z,12.80
2022-08-03T16:01:19.432Z,11.67
2022-08-03T16:04:03.074Z,12.03
2022-08-03T16:06:47.813Z,12.93
2022-08-03T16:09:42.388Z,11.57
2022-08-03T16:12:26.892Z,10.97
2022-08-03T16:15:11.395Z,11.00
2022-08-03T16:17:56.542Z,11.13
2022-08-03T16:20:39.803Z,10.60
2022-08-03T16:23:25.637Z,9.40
2022-08-03T16:26:13.659Z,9.30
2022-08-03T16:28:57.136Z,8.90
2022-08-03T16:31:41.551Z,9.20
2022-08-03T16:34:37.240Z,9.10
2022-08-03T16:37:38.224Z,8.97
2022-08-03T16:40:22.494Z,8.97
2022-08-03T16:43:18.581Z,9.33
2022-08-03T16:46:02.774Z,10.77
2022-08-03T16:48:45.913Z,10.17
2022-08-03T16:51:40.409Z,9.70
2022-08-03T16:54:36.151Z,9.60
2022-08-03T16:57:56.651Z,10.73
2022-08-03T17:00:32.977Z,11.00
2022-08-03T17:03:24.211Z,9.23
2022-08-03T17:06:07.895Z,9.37
2022-08-03T17:08:55.510Z,9.80
2022-08-03T17:11:43.893Z,9.50
2022-08-03T17:14:30.115Z,10.67
2022-08-03T17:17:20.628Z,9.20
2022-08-03T17:20:10.276Z,10.20
2022-08-03T17:23:02.007Z,16.67
2022-08-03T17:26:01.814Z,10.90
2022-08-03T17:28:57.703Z,10.67
2022-08-03T17:31:48.868Z,10.83
2022-08-03T17:34:36.626Z,14.87
2022-08-03T17:37:27.101Z,13.17
2022-08-03T17:40:26.347Z,9.87
2022-08-03T17:44:14.106Z,10.87
2022-08-03T17:46:23.392Z,11.67
2022-08-03T17:49:06.938Z,11.43
2022-08-03T17:52:17.510Z,12.83
2022-08-03T17:55:56.725Z,12.07
2022-08-03T17:58:20.937Z,12.60
2022-08-03T18:02:03.319Z,9.77
2022-08-03T18:04:30.075Z,10.97
2022-08-03T18:07:18.911Z,10.53
2022-08-03T18:10:12.066Z,10.07
2022-08-03T18:13:04.878Z,9.60
2022-08-03T18:16:01.724Z,10.40
2022-08-03T18:18:48.573Z,10.77
2022-08-03T18:22:02.188Z,9.77
2022-08-03T18:24:36.159Z,10.07
2022-08-03T18:27:22.677Z,10.93
2022-08-03T18:30:06.888Z,11.30
2022-08-03T18:33:00.337Z,10.43
2022-08-03T18:35:52.783Z,9.90
2022-08-03T18:38:40.640Z,9.83
2022-08-03T18:41:33.334Z,9.63
2022-08-03T18:47:50.559Z,10.83
2022-08-03T18:50:48.272Z,10.60
2022-08-03T18:54:03.010Z,11.57
2022-08-03T18:56:49.298Z,10.97
2022-08-03T18:59:40.300Z,11.03
2022-08-03T19:02:35.936Z,9.87
2022-08-03T19:05:23.416Z,10.20
2022-08-03T19:08:38.195Z,10.80
2022-08-03T19:11:28.185Z,11.57
2022-08-03T19:14:35.929Z,10.87
2022-08-03T19:17:29.492Z,11.90
2022-08-03T19:20:13.883Z,11.33
2022-08-03T19:23:00.363Z,11.00
2022-08-03T19:25:45.923Z,9.93
2022-08-03T19:28:31.278Z,9.87
2022-08-03T19:31:15.712Z,10.53
2022-08-03T19:34:00.491Z,10.63
2022-08-03T19:36:45.073Z,11.27
2022-08-03T19:39:28.479Z,10.27
2022-08-03T19:42:23.343Z,11.60
2022-08-03T19:45:11.396Z,10.90
2022-08-03T19:48:09.488Z,11.33
2022-08-03T19:50:59.164Z,11.00
2022-08-03T19:53:45.241Z,10.87
2022-08-03T19:56:29.572Z,11.53
2022-08-03T19:59:15.488Z,11.07
2022-08-03T20:01:58.631Z,11.00
2022-08-03T20:04:41.979Z,11.70
2022-08-03T20:07:26.678Z,11.43
2022-08-03T20:10:10.272Z,12.20
2022-08-03T20:12:54.019Z,11.80
2022-08-03T20:15:41.414Z,12.50
2022-08-03T20:18:27.897Z,12.87
2022-08-03T20:21:15.831Z,12.13
2022-08-03T20:24:23.784Z,11.40
2022-08-03T20:27:09.778Z,11.73
2022-08-03T20:30:06.797Z,11.53
2022-08-03T20:32:58.330Z,11.33
2022-08-03T20:35:41.917Z,11.40
2022-08-03T20:38:28.969Z,11.70
2022-08-03T20:41:12.707Z,11.90
2022-08-03T20:43:57.618Z,11.37
2022-08-03T20:46:53.080Z,11.90
2022-08-03T20:49:45.930Z,11.17
2022-08-03T20:52:30.664Z,12.50
2022-08-03T20:55:14.662Z,10.90
2022-08-03T20:57:58.471Z,12.13
2022-08-03T21:00:43.464Z,11.20
2022-08-03T21:06:38.924Z,12.07
2022-08-03T21:09:39.816Z,11.13
2022-08-03T21:12:31.919Z,11.20
2022-08-03T21:13:04.675Z,10.47
2022-08-03T21:13:13.617Z,11.67
2022-08-03T21:16:11.483Z,11.67
2022-08-03T21:18:22.278Z,11.30
2022-08-03T21:21:07.536Z,11.80
2022-08-03T21:23:53.742Z,13.13
2022-08-03T21:26:40.463Z,11.77
2022-08-03T21:29:24.826Z,10.97
2022-08-03T21:32:08.536Z,11.33
2022-08-03T21:34:56.436Z,12.00
2022-08-03T21:37:41.526Z,12.30
2022-08-03T21:40:26.114Z,12.20
2022-08-03T21:43:09.567Z,12.03
2022-08-03T21:45:59.234Z,12.73
2022-08-03T21:48:44.868Z,12.30
2022-08-03T21:51:31.159Z,12.67
2022-08-03T21:54:14.772Z,12.37
2022-08-03T21:57:06.587Z,13.10
2022-08-03T21:59:54.513Z,12.37
2022-08-03T22:02:39.213Z,11.80
2022-08-03T22:05:42.591Z,12.80
2022-08-03T22:08:27.517Z,12.03
2022-08-03T22:11:10.942Z,11.40
2022-08-03T22:13:55.497Z,12.37
2022-08-03T22:16:38.650Z,11.70
2022-08-03T22:19:21.785Z,12.70
2022-08-03T22:22:07.681Z,11.87
2022-08-03T22:24:53.920Z,12.10
2022-08-03T22:27:41.021Z,11.87
2022-08-03T22:30:25.855Z,12.77
2022-08-03T22:33:11.902Z,11.90
2022-08-03T22:36:01.534Z,11.70
2022-08-03T22:38:44.778Z,12.73
2022-08-03T22:41:30.837Z,11.80
2022-08-03T22:44:14.186Z,12.10
2022-08-03T22:46:59.695Z,13.33
2022-08-03T22:49:44.403Z,11.37
2022-08-03T22:52:28.746Z,12.67
2022-08-03T22:55:13.699Z,12.57
2022-08-03T22:58:07.767Z,11.87
2022-08-03T23:00:55.895Z,13.43
2022-08-03T23:03:59.782Z,11.87
2022-08-03T23:06:49.173Z,12.63
2022-08-03T23:09:35.197Z,12.00
2022-08-03T23:12:21.092Z,11.63
2022-08-03T23:15:07.781Z,11.63
2022-08-03T23:17:58.103Z,12.40
2022-08-03T23:20:44.771Z,12.23
2022-08-03T23:23:31.059Z,13.27
2022-08-03T23:26:28.305Z,11.90
2022-08-03T23:29:15.459Z,12.00
2022-08-03T23:31:59.548Z,12.03
2022-08-03T23:35:01.501Z,11.60
2022-08-03T23:38:12.250Z,12.20
2022-08-03T23:40:51.487Z,13.33
2022-08-03T23:43:51.837Z,13.23
2022-08-03T23:46:38.493Z,14.00
2022-08-03T23:49:21.958Z,13.47
2022-08-03T23:52:11.198Z,12.90
2022-08-03T23:55:17.480Z,13.77
2022-08-03T23:58:10.756Z,14.60
